This is the latest recevied weather packets stored in our database for station/object HR1LRC-21. If no packets are shown the sender has not sent any weather packets the latest 10 day(s).
| Time | Temp. | Humidity | Pressure | Rain* | Wind** | Luminosity | Snow |
|---|---|---|---|---|---|---|---|
| 1778027297 | 26.11° C | 31% | 1012 hPa | 0 mm | - | - | - |
| 1778026697 | 26.11° C | 31% | 1012 hPa | 0 mm | - | - | - |
| 1778023694 | 31.11° C | 24% | 1011 hPa | 0 mm | - | - | - |
| 1778020691 | 31.11° C | 24% | 1009 hPa | 0 mm | - | - | - |
| 1778020090 | 31.11° C | 24% | 1010 hPa | 0 mm | - | - | - |
| 1778018889 | 31.11° C | 24% | 1009 hPa | 0 mm | - | - | - |
| 1778015886 | 31.11° C | 24% | 1009 hPa | 0 mm | - | - | - |
| 1778014684 | 31.11° C | 24% | 1008 hPa | 0 mm | - | - | - |
| 1778013483 | 31.11° C | 24% | 1008 hPa | 0 mm | - | - | - |
| 1778012883 | 31.11° C | 24% | 1009 hPa | 0 mm | - | - | - |
| 1778012282 | 31.11° C | 24% | 1009 hPa | 0 mm | - | - | - |
| 1778011681 | 31.11° C | 24% | 1009 hPa | 0 mm | - | - | - |
| 1778011081 | 31.11° C | 24% | 1009 hPa | 0 mm | - | - | - |
| 1778009880 | 31.11° C | 24% | 1009 hPa | 0 mm | - | - | - |
| 1778009279 | 27.78° C | 26% | 1010 hPa | 0 mm | - | - | - |
| 1778008679 | 27.78° C | 26% | 1010 hPa | 0 mm | - | - | - |
| 1778008078 | 27.78° C | 25% | 1010 hPa | 0 mm | - | - | - |
| 1778007477 | 27.78° C | 24% | 1010 hPa | 0 mm | - | - | - |
| 1778006877 | 27.78° C | 24% | 1010 hPa | 0 mm | - | - | - |
| 1778006276 | 27.78° C | 26% | 1011 hPa | 0 mm | - | - | - |
| 1778005676 | 26.67° C | 30% | 1012 hPa | 0 mm | - | - | - |
| 1778005075 | 26.11° C | 30% | 1012 hPa | 0 mm | - | - | - |
| 1778004474 | 26.11° C | 30% | 1012 hPa | 0 mm | - | - | - |
| 1778002673 | 25.56° C | 32% | 1012 hPa | 0 mm | - | - | - |
| 1778002072 | 25° C | 39% | 1013 hPa | 0 mm | - | - | - |
* Rain latest hour (hover to see other rain measurements)
** Current wind speed in m/s (hover to see current wind gust speed)